EWG96D HEGN-EDDL
Flight info
| Callsign | EWG96D |
|---|---|
| Flight time | N/A |
| Altitude | 34000 |
| Route | BOTIX1B BOTIX V608 NABED T55 KUNKI P751 METRU DCT DIMIS DCT VRANA DCT NIVES DCT GORPA DCT SIMBA DCT TESDU DCT AMETU T852 TINSA T854 DOMUX DOMUX1A |
| Aircraft | A319/M-SDE3FGHIRWY/LB1 |
Departure
| Time | 2026-05-05 12:33 |
|---|---|
| Airport | Hurghada International Airport (HEGN) |
Arrival
| Time | N/A |
|---|---|
| Airport | Düsseldorf Airport (EDDL) |
| Time | Latitude | Longitude | Altitude | Speed | Heading |
|---|---|---|---|---|---|
| 2026-05-05 11:56 | 27.17936 | 33.80610 | 54 ft | 0 kts | 75° |
| 2026-05-05 12:24 | 27.17933 | 33.80597 | 52 ft | 4 kts | 78° |
| 2026-05-05 12:24 | 27.17929 | 33.80567 | 51 ft | 4 kts | 87° |
| 2026-05-05 12:24 | 27.17930 | 33.80537 | 51 ft | 4 kts | 99° |
| 2026-05-05 12:25 | 27.17937 | 33.80508 | 51 ft | 4 kts | 124° |
| 2026-05-05 12:25 | 27.17953 | 33.80493 | 57 ft | 1 kts | 165° |
| 2026-05-05 12:25 | 27.17953 | 33.80492 | 58 ft | 0 kts | 165° |
| 2026-05-05 12:27 | 27.17951 | 33.80493 | 56 ft | 1 kts | 165° |
| 2026-05-05 12:28 | 27.17934 | 33.80498 | 54 ft | 4 kts | 165° |
| 2026-05-05 12:28 | 27.17902 | 33.80508 | 55 ft | 6 kts | 166° |
| 2026-05-05 12:28 | 27.17858 | 33.80495 | 55 ft | 8 kts | 220° |
| 2026-05-05 12:28 | 27.17836 | 33.80434 | 58 ft | 9 kts | 256° |
| 2026-05-05 12:29 | 27.17819 | 33.80354 | 54 ft | 12 kts | 255° |
| 2026-05-05 12:29 | 27.17747 | 33.80302 | 54 ft | 15 kts | 162° |
| 2026-05-05 12:29 | 27.17646 | 33.80336 | 55 ft | 16 kts | 163° |
| 2026-05-05 12:29 | 27.17534 | 33.80370 | 54 ft | 18 kts | 167° |
| 2026-05-05 12:30 | 27.17403 | 33.80405 | 50 ft | 20 kts | 165° |
| 2026-05-05 12:30 | 27.17261 | 33.80447 | 50 ft | 22 kts | 165° |
| 2026-05-05 12:30 | 27.17107 | 33.80493 | 48 ft | 24 kts | 165° |
| 2026-05-05 12:30 | 27.16951 | 33.80539 | 49 ft | 23 kts | 165° |
| 2026-05-05 12:31 | 27.16788 | 33.80586 | 46 ft | 25 kts | 165° |
| 2026-05-05 12:31 | 27.16616 | 33.80638 | 49 ft | 25 kts | 165° |
| 2026-05-05 12:31 | 27.16441 | 33.80690 | 46 ft | 27 kts | 166° |
| 2026-05-05 12:31 | 27.16263 | 33.80742 | 43 ft | 17 kts | 165° |
| 2026-05-05 12:32 | 27.16173 | 33.80762 | 40 ft | 11 kts | 188° |
| 2026-05-05 12:32 | 27.16137 | 33.80691 | 41 ft | 11 kts | 253° |
| 2026-05-05 12:32 | 27.16136 | 33.80618 | 41 ft | 9 kts | 300° |
| 2026-05-05 12:32 | 27.16247 | 33.80573 | 42 ft | 37 kts | 345° |
| 2026-05-05 12:33 | 27.16677 | 33.80447 | 46 ft | 92 kts | 345° |
| 2026-05-05 12:33 | 27.17465 | 33.80215 | 52 ft | 141 kts | 345° |
| 2026-05-05 12:33 | 27.18538 | 33.79889 | 240 ft | 168 kts | 347° |
| 2026-05-05 12:33 | 27.19665 | 33.79535 | 851 ft | 169 kts | 345° |
| 2026-05-05 12:34 | 27.20790 | 33.79158 | 1486 ft | 169 kts | 346° |
| 2026-05-05 12:34 | 27.21925 | 33.78775 | 2013 ft | 173 kts | 342° |
| 2026-05-05 12:34 | 27.23121 | 33.78352 | 2163 ft | 190 kts | 339° |
| 2026-05-05 12:34 | 27.24433 | 33.77909 | 2312 ft | 203 kts | 340° |
| 2026-05-05 12:35 | 27.25854 | 33.77445 | 2491 ft | 222 kts | 340° |
| 2026-05-05 12:35 | 27.27418 | 33.76940 | 2741 ft | 245 kts | 341° |
| 2026-05-05 12:35 | 27.29107 | 33.76402 | 3408 ft | 253 kts | 343° |
| 2026-05-05 12:35 | 27.30815 | 33.75836 | 4195 ft | 257 kts | 337° |
| 2026-05-05 12:36 | 27.32273 | 33.74686 | 4916 ft | 261 kts | 308° |
| 2026-05-05 12:36 | 27.33032 | 33.72840 | 5653 ft | 265 kts | 279° |
| 2026-05-05 12:36 | 27.32891 | 33.70793 | 6376 ft | 270 kts | 255° |
| 2026-05-05 12:36 | 27.32308 | 33.68740 | 7138 ft | 274 kts | 253° |
| 2026-05-05 12:37 | 27.31699 | 33.66701 | 7869 ft | 277 kts | 252° |
| 2026-05-05 12:37 | 27.31086 | 33.64668 | 8586 ft | 279 kts | 253° |
| 2026-05-05 12:37 | 27.30459 | 33.62598 | 9300 ft | 282 kts | 253° |
| 2026-05-05 12:37 | 27.29827 | 33.60501 | 10020 ft | 283 kts | 253° |
| 2026-05-05 12:38 | 27.29192 | 33.58360 | 10336 ft | 297 kts | 253° |
| 2026-05-05 12:38 | 27.28526 | 33.56098 | 10466 ft | 312 kts | 253° |
| 2026-05-05 12:38 | 27.27825 | 33.53716 | 10595 ft | 330 kts | 253° |
| 2026-05-05 12:38 | 27.27082 | 33.51215 | 10863 ft | 340 kts | 253° |
| 2026-05-05 12:39 | 27.26331 | 33.48676 | 11337 ft | 344 kts | 253° |
| 2026-05-05 12:39 | 27.25576 | 33.46115 | 11928 ft | 346 kts | 252° |
| 2026-05-05 12:39 | 27.24816 | 33.43542 | 12564 ft | 346 kts | 252° |
| 2026-05-05 12:39 | 27.24059 | 33.40968 | 13164 ft | 348 kts | 253° |
| 2026-05-05 12:40 | 27.23306 | 33.38419 | 13739 ft | 349 kts | 253° |
| 2026-05-05 12:40 | 27.22538 | 33.35825 | 14300 ft | 351 kts | 253° |
| 2026-05-05 12:40 | 27.21994 | 33.33153 | 14824 ft | 352 kts | 264° |
| 2026-05-05 12:40 | 27.21939 | 33.30404 | 15345 ft | 353 kts | 274° |
| 2026-05-05 12:41 | 27.22174 | 33.27650 | 15836 ft | 355 kts | 275° |
| 2026-05-05 12:41 | 27.22407 | 33.24887 | 16398 ft | 356 kts | 275° |
| 2026-05-05 12:41 | 27.22639 | 33.22101 | 16971 ft | 358 kts | 275° |
| 2026-05-05 12:41 | 27.22865 | 33.19309 | 17519 ft | 360 kts | 274° |
| 2026-05-05 12:42 | 27.23091 | 33.16488 | 18021 ft | 363 kts | 274° |
| 2026-05-05 12:42 | 27.23319 | 33.13653 | 18543 ft | 365 kts | 275° |
| 2026-05-05 12:42 | 27.23557 | 33.10804 | 19049 ft | 367 kts | 275° |
| 2026-05-05 12:42 | 27.23794 | 33.07971 | 19525 ft | 369 kts | 275° |
| 2026-05-05 12:43 | 27.24033 | 33.05084 | 19983 ft | 372 kts | 275° |
| 2026-05-05 12:43 | 27.24272 | 33.02183 | 20434 ft | 374 kts | 275° |
| 2026-05-05 12:43 | 27.24511 | 32.99263 | 20870 ft | 376 kts | 275° |
| 2026-05-05 12:43 | 27.24751 | 32.96334 | 21280 ft | 378 kts | 274° |
| 2026-05-05 12:44 | 27.24987 | 32.93379 | 21676 ft | 380 kts | 274° |
| 2026-05-05 12:44 | 27.25221 | 32.90419 | 22048 ft | 382 kts | 274° |
| 2026-05-05 12:44 | 27.25457 | 32.87441 | 22426 ft | 384 kts | 274° |
| 2026-05-05 12:44 | 27.25693 | 32.84447 | 22796 ft | 385 kts | 274° |
| 2026-05-05 12:45 | 27.25928 | 32.81441 | 23142 ft | 387 kts | 274° |
| 2026-05-05 12:45 | 27.26168 | 32.78419 | 23492 ft | 389 kts | 274° |
| 2026-05-05 12:45 | 27.26408 | 32.75381 | 23827 ft | 391 kts | 274° |
| 2026-05-05 12:45 | 27.26644 | 32.72332 | 24162 ft | 392 kts | 274° |
| 2026-05-05 12:46 | 27.26886 | 32.69267 | 24485 ft | 394 kts | 274° |
| 2026-05-05 12:46 | 27.27129 | 32.66193 | 24817 ft | 396 kts | 274° |
| 2026-05-05 12:46 | 27.27375 | 32.63109 | 25144 ft | 397 kts | 274° |
| 2026-05-05 12:46 | 27.27620 | 32.60013 | 25452 ft | 398 kts | 274° |
| 2026-05-05 12:47 | 27.27860 | 32.56901 | 25757 ft | 400 kts | 274° |
| 2026-05-05 12:47 | 27.28093 | 32.53821 | 26055 ft | 401 kts | 274° |
| 2026-05-05 12:47 | 27.28327 | 32.50656 | 26361 ft | 402 kts | 274° |
| 2026-05-05 12:47 | 27.28561 | 32.47559 | 26650 ft | 403 kts | 274° |
| 2026-05-05 12:48 | 27.28799 | 32.44413 | 26928 ft | 405 kts | 274° |
| 2026-05-05 12:48 | 27.29044 | 32.41212 | 27227 ft | 406 kts | 274° |
| 2026-05-05 12:48 | 27.29285 | 32.38090 | 27489 ft | 406 kts | 274° |
| 2026-05-05 12:48 | 27.29531 | 32.34920 | 27750 ft | 408 kts | 274° |
| 2026-05-05 12:49 | 27.29866 | 32.31751 | 27996 ft | 410 kts | 279° |
| 2026-05-05 12:49 | 27.30674 | 32.28663 | 28257 ft | 414 kts | 288° |
| 2026-05-05 12:49 | 27.31990 | 32.25759 | 28479 ft | 421 kts | 298° |
| 2026-05-05 12:49 | 27.33732 | 32.23082 | 28696 ft | 425 kts | 302° |
| 2026-05-05 12:50 | 27.35545 | 32.20446 | 28979 ft | 425 kts | 302° |
| 2026-05-05 12:50 | 27.37358 | 32.17812 | 29306 ft | 424 kts | 302° |
| 2026-05-05 12:50 | 27.39164 | 32.15189 | 29641 ft | 423 kts | 302° |
| 2026-05-05 12:50 | 27.40965 | 32.12570 | 29987 ft | 422 kts | 302° |
| 2026-05-05 12:51 | 27.42733 | 32.09992 | 30325 ft | 420 kts | 302° |
| 2026-05-05 12:51 | 27.44512 | 32.07390 | 30672 ft | 419 kts | 301° |
| 2026-05-05 12:51 | 27.46288 | 32.04790 | 30996 ft | 418 kts | 301° |
| 2026-05-05 12:51 | 27.48049 | 32.02208 | 31319 ft | 417 kts | 301° |
| 2026-05-05 12:52 | 27.49817 | 31.99614 | 31617 ft | 416 kts | 301° |
| 2026-05-05 12:52 | 27.51578 | 31.97025 | 31929 ft | 415 kts | 301° |
| 2026-05-05 12:52 | 27.53330 | 31.94448 | 32250 ft | 414 kts | 301° |
| 2026-05-05 12:52 | 27.55081 | 31.91875 | 32552 ft | 413 kts | 301° |
| 2026-05-05 12:53 | 27.56832 | 31.89312 | 32868 ft | 412 kts | 301° |
| 2026-05-05 12:53 | 27.58580 | 31.86745 | 33163 ft | 412 kts | 301° |
| 2026-05-05 12:53 | 27.60317 | 31.84188 | 33453 ft | 411 kts | 301° |
| 2026-05-05 12:53 | 27.62054 | 31.81638 | 33748 ft | 410 kts | 301° |
| 2026-05-05 12:54 | 27.65517 | 31.76541 | 34081 ft | 408 kts | 300° |
| 2026-05-05 12:54 | 27.67241 | 31.73997 | 34089 ft | 407 kts | 300° |
| 2026-05-05 12:55 | 27.70654 | 31.68961 | 34080 ft | 406 kts | 300° |
| 2026-05-05 12:55 | 27.74085 | 31.63895 | 34081 ft | 406 kts | 300° |
| 2026-05-05 12:56 | 27.77517 | 31.58826 | 34084 ft | 406 kts | 300° |
| 2026-05-05 12:56 | 27.80947 | 31.53756 | 34089 ft | 406 kts | 300° |
| 2026-05-05 12:57 | 27.84370 | 31.48684 | 34091 ft | 406 kts | 300° |
| 2026-05-05 12:57 | 27.87789 | 31.43610 | 34087 ft | 406 kts | 300° |
| 2026-05-05 12:58 | 27.91186 | 31.38562 | 34087 ft | 405 kts | 300° |
| 2026-05-05 12:58 | 27.94594 | 31.33481 | 34092 ft | 405 kts | 300° |
| 2026-05-05 12:59 | 27.98013 | 31.28399 | 34092 ft | 405 kts | 300° |
| 2026-05-05 12:59 | 28.01423 | 31.23322 | 34090 ft | 405 kts | 300° |
| 2026-05-05 13:00 | 28.06518 | 31.15707 | 34102 ft | 404 kts | 300° |
| 2026-05-05 13:01 | 28.12830 | 31.05282 | 34099 ft | 400 kts | 297° |
| 2026-05-05 13:01 | 28.15870 | 30.99997 | 34097 ft | 400 kts | 297° |
| 2026-05-05 13:02 | 28.18429 | 30.95631 | 34100 ft | 400 kts | 298° |
| 2026-05-05 13:02 | 28.22033 | 30.89538 | 34105 ft | 400 kts | 298° |
| 2026-05-05 13:03 | 28.25123 | 30.84298 | 34106 ft | 400 kts | 298° |
| 2026-05-05 13:03 | 28.27707 | 30.79895 | 34107 ft | 400 kts | 298° |
| 2026-05-05 13:04 | 28.30781 | 30.74639 | 34109 ft | 400 kts | 298° |
| 2026-05-05 13:04 | 28.33855 | 30.69377 | 34110 ft | 400 kts | 298° |
| 2026-05-05 13:05 | 28.36934 | 30.64115 | 34110 ft | 399 kts | 298° |
| 2026-05-05 13:05 | 28.40009 | 30.58872 | 34109 ft | 399 kts | 298° |
| 2026-05-05 13:06 | 28.43077 | 30.53614 | 34107 ft | 399 kts | 298° |
| 2026-05-05 13:06 | 28.46137 | 30.48350 | 34105 ft | 399 kts | 298° |
| 2026-05-05 13:07 | 28.49203 | 30.43080 | 34102 ft | 400 kts | 298° |
| 2026-05-05 13:07 | 28.52246 | 30.37840 | 34102 ft | 400 kts | 298° |
| 2026-05-05 13:08 | 28.55315 | 30.32561 | 34104 ft | 400 kts | 298° |
| 2026-05-05 13:08 | 28.58383 | 30.27281 | 34105 ft | 400 kts | 298° |
| 2026-05-05 13:09 | 28.61448 | 30.21985 | 34104 ft | 400 kts | 298° |
| 2026-05-05 13:09 | 28.64506 | 30.16702 | 34103 ft | 400 kts | 298° |
| 2026-05-05 13:10 | 28.67564 | 30.11412 | 34102 ft | 399 kts | 297° |
| 2026-05-05 13:10 | 28.70591 | 30.06158 | 34100 ft | 399 kts | 298° |
| 2026-05-05 13:11 | 28.73634 | 30.00865 | 34101 ft | 399 kts | 298° |
| 2026-05-05 13:11 | 28.76675 | 29.95574 | 34099 ft | 399 kts | 298° |
| 2026-05-05 13:12 | 28.79716 | 29.90282 | 34097 ft | 399 kts | 298° |
| 2026-05-05 13:12 | 28.82760 | 29.84982 | 34097 ft | 399 kts | 298° |
| 2026-05-05 13:13 | 28.85807 | 29.79689 | 34096 ft | 399 kts | 298° |
| 2026-05-05 13:13 | 28.88850 | 29.74384 | 34097 ft | 399 kts | 298° |
| 2026-05-05 13:14 | 28.91858 | 29.69112 | 34096 ft | 399 kts | 298° |
| 2026-05-05 13:14 | 28.94887 | 29.63799 | 34096 ft | 399 kts | 298° |
| 2026-05-05 13:15 | 28.97922 | 29.58483 | 34096 ft | 400 kts | 298° |
| 2026-05-05 13:15 | 29.00954 | 29.53161 | 34099 ft | 400 kts | 298° |
| 2026-05-05 13:16 | 29.03979 | 29.47837 | 34101 ft | 399 kts | 298° |
| 2026-05-05 13:16 | 29.07006 | 29.42518 | 34099 ft | 399 kts | 298° |
| 2026-05-05 13:17 | 29.10026 | 29.37196 | 34098 ft | 399 kts | 298° |
| 2026-05-05 13:17 | 29.13471 | 29.32184 | 34091 ft | 409 kts | 311° |
| 2026-05-05 13:18 | 29.18018 | 29.28170 | 34097 ft | 413 kts | 316° |
| 2026-05-05 13:18 | 29.22606 | 29.24200 | 34096 ft | 414 kts | 316° |
| 2026-05-05 13:19 | 29.27190 | 29.20221 | 34097 ft | 414 kts | 316° |
| 2026-05-05 13:19 | 29.31782 | 29.16236 | 34101 ft | 414 kts | 316° |
| 2026-05-05 13:20 | 29.36372 | 29.12245 | 34105 ft | 414 kts | 316° |
| 2026-05-05 13:20 | 29.40928 | 29.08278 | 34108 ft | 413 kts | 316° |
| 2026-05-05 13:21 | 29.45508 | 29.04288 | 34111 ft | 413 kts | 316° |
| 2026-05-05 13:21 | 29.50085 | 29.00278 | 34115 ft | 413 kts | 316° |
| 2026-05-05 13:22 | 29.54667 | 28.96267 | 34116 ft | 414 kts | 316° |
| 2026-05-05 13:22 | 29.59245 | 28.92253 | 34117 ft | 413 kts | 316° |
| 2026-05-05 13:23 | 29.63820 | 28.88237 | 34121 ft | 413 kts | 316° |
| 2026-05-05 13:23 | 29.68354 | 28.84250 | 34122 ft | 413 kts | 316° |
| 2026-05-05 13:24 | 29.72910 | 28.80233 | 34119 ft | 412 kts | 316° |
| 2026-05-05 13:24 | 29.77471 | 28.76216 | 34117 ft | 412 kts | 316° |
| 2026-05-05 13:25 | 29.82031 | 28.72203 | 34118 ft | 412 kts | 316° |
| 2026-05-05 13:25 | 29.86588 | 28.68187 | 34117 ft | 412 kts | 316° |
| 2026-05-05 13:26 | 29.91134 | 28.64171 | 34116 ft | 412 kts | 316° |
| 2026-05-05 13:26 | 29.95678 | 28.60151 | 34113 ft | 412 kts | 316° |
| 2026-05-05 13:27 | 30.00200 | 28.56147 | 34114 ft | 412 kts | 316° |
| 2026-05-05 13:27 | 30.04742 | 28.52122 | 34123 ft | 411 kts | 316° |
| 2026-05-05 13:28 | 30.09279 | 28.48094 | 34128 ft | 411 kts | 316° |
| 2026-05-05 13:28 | 30.13808 | 28.44068 | 34131 ft | 410 kts | 316° |
| 2026-05-05 13:29 | 30.18326 | 28.40037 | 34132 ft | 410 kts | 316° |
| 2026-05-05 13:29 | 30.22853 | 28.36004 | 34133 ft | 410 kts | 316° |
| 2026-05-05 13:30 | 30.27339 | 28.31996 | 34133 ft | 410 kts | 316° |
| 2026-05-05 13:30 | 30.31859 | 28.27954 | 34134 ft | 410 kts | 316° |
| 2026-05-05 13:31 | 30.36382 | 28.23912 | 34135 ft | 410 kts | 316° |
| 2026-05-05 13:31 | 30.40900 | 28.19871 | 34136 ft | 410 kts | 316° |
| 2026-05-05 13:32 | 30.45421 | 28.15827 | 34140 ft | 410 kts | 316° |
| 2026-05-05 13:32 | 30.49934 | 28.11768 | 34141 ft | 410 kts | 316° |
| 2026-05-05 13:33 | 30.54407 | 28.07736 | 34143 ft | 410 kts | 316° |
| 2026-05-05 13:33 | 30.58917 | 28.03678 | 34146 ft | 409 kts | 316° |
| 2026-05-05 13:34 | 30.63419 | 27.99629 | 34152 ft | 409 kts | 316° |
| 2026-05-05 13:34 | 30.67908 | 27.95583 | 34154 ft | 408 kts | 316° |
| 2026-05-05 13:35 | 30.72392 | 27.91536 | 34156 ft | 408 kts | 316° |
| 2026-05-05 13:35 | 30.76873 | 27.87491 | 34156 ft | 407 kts | 316° |
| 2026-05-05 13:36 | 30.81340 | 27.83449 | 34156 ft | 406 kts | 316° |
| 2026-05-05 13:36 | 30.85770 | 27.79425 | 34156 ft | 406 kts | 316° |
| 2026-05-05 13:37 | 30.90217 | 27.75385 | 34158 ft | 405 kts | 316° |
| 2026-05-05 13:37 | 30.94659 | 27.71351 | 34158 ft | 404 kts | 317° |
| 2026-05-05 13:38 | 30.99098 | 27.67321 | 34159 ft | 404 kts | 317° |
| 2026-05-05 13:38 | 31.03523 | 27.63290 | 34161 ft | 403 kts | 317° |
| 2026-05-05 13:39 | 31.07940 | 27.59264 | 34163 ft | 402 kts | 317° |
| 2026-05-05 13:39 | 31.12317 | 27.55205 | 34160 ft | 399 kts | 313° |
| 2026-05-05 13:40 | 31.15738 | 27.50266 | 34162 ft | 392 kts | 301° |
| 2026-05-05 13:40 | 31.18786 | 27.44980 | 34159 ft | 392 kts | 301° |
| 2026-05-05 13:41 | 31.21852 | 27.39714 | 34156 ft | 391 kts | 301° |
| 2026-05-05 13:41 | 31.24896 | 27.34481 | 34155 ft | 391 kts | 301° |
| 2026-05-05 13:42 | 31.27948 | 27.29206 | 34155 ft | 391 kts | 301° |
| 2026-05-05 13:42 | 31.31046 | 27.23972 | 34152 ft | 393 kts | 306° |
| 2026-05-05 13:43 | 31.35229 | 27.19797 | 34153 ft | 401 kts | 322° |
| 2026-05-05 13:43 | 31.39954 | 27.16289 | 34153 ft | 402 kts | 322° |
| 2026-05-05 13:44 | 31.44634 | 27.12781 | 34156 ft | 402 kts | 322° |
| 2026-05-05 13:44 | 31.49342 | 27.09243 | 34156 ft | 401 kts | 322° |
| 2026-05-05 13:45 | 31.54053 | 27.05717 | 34158 ft | 402 kts | 322° |
| 2026-05-05 13:45 | 31.58766 | 27.02193 | 34163 ft | 402 kts | 322° |
| 2026-05-05 13:46 | 31.63470 | 26.98659 | 34164 ft | 401 kts | 322° |
| 2026-05-05 13:46 | 31.68168 | 26.95110 | 34163 ft | 401 kts | 322° |
| 2026-05-05 13:47 | 31.72866 | 26.91570 | 34164 ft | 401 kts | 322° |
| 2026-05-05 13:47 | 31.77537 | 26.88048 | 34165 ft | 400 kts | 322° |
| 2026-05-05 13:48 | 31.82220 | 26.84513 | 34165 ft | 400 kts | 322° |
| 2026-05-05 13:48 | 31.86907 | 26.80971 | 34166 ft | 400 kts | 322° |
| 2026-05-05 13:49 | 31.91596 | 26.77425 | 34166 ft | 400 kts | 322° |
| 2026-05-05 13:49 | 31.95514 | 26.74461 | 34165 ft | 400 kts | 322° |
| 2026-05-05 13:50 | 32.00155 | 26.70927 | 34160 ft | 399 kts | 322° |
| 2026-05-05 13:50 | 32.04827 | 26.67379 | 34166 ft | 398 kts | 322° |
| 2026-05-05 13:51 | 32.09483 | 26.63844 | 34167 ft | 397 kts | 322° |
| 2026-05-05 13:51 | 32.14122 | 26.60301 | 34165 ft | 397 kts | 322° |
| 2026-05-05 13:52 | 32.18760 | 26.56767 | 34159 ft | 397 kts | 322° |
| 2026-05-05 13:52 | 32.23400 | 26.53227 | 34152 ft | 396 kts | 322° |
| 2026-05-05 13:53 | 32.28008 | 26.49709 | 34148 ft | 396 kts | 322° |
| 2026-05-05 13:53 | 32.32646 | 26.46162 | 34139 ft | 397 kts | 322° |
| 2026-05-05 13:54 | 32.37281 | 26.42608 | 34137 ft | 397 kts | 322° |
| 2026-05-05 13:54 | 32.41904 | 26.39056 | 34136 ft | 397 kts | 322° |
| 2026-05-05 13:55 | 32.46538 | 26.35498 | 34137 ft | 396 kts | 322° |
| 2026-05-05 13:55 | 32.51161 | 26.31936 | 34134 ft | 396 kts | 322° |
| 2026-05-05 13:56 | 32.55786 | 26.28370 | 34131 ft | 396 kts | 322° |
| 2026-05-05 13:56 | 32.60383 | 26.24832 | 34129 ft | 396 kts | 322° |
| 2026-05-05 13:57 | 32.65008 | 26.21264 | 34128 ft | 396 kts | 322° |
| 2026-05-05 13:57 | 32.69631 | 26.17692 | 34127 ft | 396 kts | 322° |
| 2026-05-05 13:58 | 32.74255 | 26.14117 | 34124 ft | 396 kts | 322° |
| 2026-05-05 13:58 | 32.78874 | 26.10534 | 34123 ft | 396 kts | 322° |
| 2026-05-05 13:59 | 32.85766 | 26.05188 | 34120 ft | 396 kts | 322° |
| 2026-05-05 14:00 | 32.92676 | 25.99811 | 34120 ft | 395 kts | 322° |
| 2026-05-05 14:00 | 32.97284 | 25.96224 | 34117 ft | 395 kts | 322° |
| 2026-05-05 14:01 | 33.01887 | 25.92632 | 34117 ft | 395 kts | 322° |
| 2026-05-05 14:01 | 33.06487 | 25.89035 | 34117 ft | 395 kts | 322° |
| 2026-05-05 14:02 | 33.11054 | 25.85472 | 34116 ft | 395 kts | 322° |
| 2026-05-05 14:02 | 33.15645 | 25.81879 | 34117 ft | 395 kts | 322° |
| 2026-05-05 14:03 | 33.20233 | 25.78283 | 34117 ft | 394 kts | 322° |
| 2026-05-05 14:03 | 33.24821 | 25.74678 | 34113 ft | 394 kts | 322° |
| 2026-05-05 14:04 | 33.29405 | 25.71074 | 34109 ft | 394 kts | 322° |
| 2026-05-05 14:04 | 33.33979 | 25.67471 | 34107 ft | 394 kts | 322° |
| 2026-05-05 14:05 | 33.38523 | 25.63891 | 34106 ft | 394 kts | 322° |
| 2026-05-05 14:05 | 33.43094 | 25.60282 | 34104 ft | 393 kts | 322° |
| 2026-05-05 14:06 | 33.47671 | 25.56675 | 34102 ft | 393 kts | 322° |
| 2026-05-05 14:06 | 33.52243 | 25.53056 | 34102 ft | 393 kts | 322° |
| 2026-05-05 14:07 | 33.56805 | 25.49434 | 34103 ft | 393 kts | 322° |
| 2026-05-05 14:07 | 33.61376 | 25.45821 | 34104 ft | 393 kts | 322° |
| 2026-05-05 14:08 | 33.65912 | 25.42233 | 34103 ft | 392 kts | 322° |
| 2026-05-05 14:08 | 33.70464 | 25.38608 | 34100 ft | 392 kts | 322° |
| 2026-05-05 14:09 | 33.75012 | 25.34990 | 34087 ft | 392 kts | 322° |
| 2026-05-05 14:09 | 33.79564 | 25.31359 | 34087 ft | 392 kts | 322° |
| 2026-05-05 14:10 | 33.84085 | 25.27743 | 34084 ft | 393 kts | 322° |
| 2026-05-05 14:10 | 33.88641 | 25.24102 | 34085 ft | 393 kts | 322° |
| 2026-05-05 14:11 | 33.93192 | 25.20457 | 34088 ft | 393 kts | 322° |
| 2026-05-05 14:11 | 33.97747 | 25.16808 | 34092 ft | 393 kts | 322° |
| 2026-05-05 14:12 | 34.02351 | 25.13221 | 34097 ft | 394 kts | 325° |
| 2026-05-05 14:12 | 34.07113 | 25.09980 | 34106 ft | 395 kts | 327° |
| 2026-05-05 14:13 | 34.11945 | 25.06796 | 34110 ft | 395 kts | 327° |
| 2026-05-05 14:13 | 34.16742 | 25.03548 | 34111 ft | 395 kts | 326° |
| 2026-05-05 14:14 | 34.21512 | 25.00261 | 34111 ft | 395 kts | 326° |
| 2026-05-05 14:14 | 34.26284 | 24.96961 | 34111 ft | 395 kts | 326° |
| 2026-05-05 14:15 | 34.31062 | 24.93664 | 34110 ft | 395 kts | 326° |
| 2026-05-05 14:15 | 34.35798 | 24.90393 | 34110 ft | 395 kts | 326° |
| 2026-05-05 14:16 | 34.40577 | 24.87084 | 34109 ft | 395 kts | 326° |
| 2026-05-05 14:16 | 34.45359 | 24.83772 | 34107 ft | 396 kts | 326° |
| 2026-05-05 14:17 | 34.50143 | 24.80454 | 34107 ft | 396 kts | 327° |
| 2026-05-05 14:17 | 34.54923 | 24.77145 | 34108 ft | 395 kts | 327° |
| 2026-05-05 14:18 | 34.59675 | 24.73841 | 34109 ft | 395 kts | 326° |
| 2026-05-05 14:18 | 34.64444 | 24.70516 | 34108 ft | 395 kts | 326° |
| 2026-05-05 14:19 | 34.69211 | 24.67186 | 34104 ft | 395 kts | 327° |
| 2026-05-05 14:19 | 34.73986 | 24.63859 | 34101 ft | 395 kts | 327° |
| 2026-05-05 14:20 | 34.78756 | 24.60531 | 34101 ft | 395 kts | 327° |
| 2026-05-05 14:20 | 34.83533 | 24.57191 | 34102 ft | 395 kts | 327° |
| 2026-05-05 14:21 | 34.88304 | 24.53847 | 34102 ft | 395 kts | 327° |
| 2026-05-05 14:21 | 34.93063 | 24.50499 | 34099 ft | 395 kts | 327° |
| 2026-05-05 14:22 | 34.97830 | 24.47153 | 34099 ft | 395 kts | 327° |
| 2026-05-05 14:22 | 35.02564 | 24.43822 | 34100 ft | 395 kts | 327° |
| 2026-05-05 14:23 | 35.07324 | 24.40459 | 34102 ft | 395 kts | 327° |
| 2026-05-05 14:23 | 35.12094 | 24.37097 | 34104 ft | 395 kts | 327° |
| 2026-05-05 14:24 | 35.16857 | 24.33740 | 34103 ft | 395 kts | 327° |
| 2026-05-05 14:24 | 35.21620 | 24.30377 | 34101 ft | 395 kts | 327° |
| 2026-05-05 14:25 | 35.26382 | 24.26997 | 34102 ft | 395 kts | 327° |
| 2026-05-05 14:25 | 35.31141 | 24.23625 | 34104 ft | 395 kts | 327° |
| 2026-05-05 14:26 | 35.35865 | 24.20267 | 34105 ft | 395 kts | 327° |
| 2026-05-05 14:26 | 35.40617 | 24.16884 | 34107 ft | 395 kts | 327° |
| 2026-05-05 14:27 | 35.45369 | 24.13502 | 34108 ft | 395 kts | 327° |
| 2026-05-05 14:27 | 35.50114 | 24.10110 | 34110 ft | 395 kts | 327° |
| 2026-05-05 14:28 | 35.54856 | 24.06713 | 34111 ft | 394 kts | 328° |
| 2026-05-05 14:28 | 35.59599 | 24.03322 | 34111 ft | 394 kts | 328° |
| 2026-05-05 14:29 | 35.64344 | 23.99933 | 34112 ft | 394 kts | 328° |
| 2026-05-05 14:29 | 35.69089 | 23.96531 | 34113 ft | 394 kts | 328° |
| 2026-05-05 14:30 | 35.73797 | 23.93153 | 34114 ft | 394 kts | 328° |
| 2026-05-05 14:30 | 35.78536 | 23.89735 | 34115 ft | 394 kts | 328° |
| 2026-05-05 14:31 | 35.83269 | 23.86333 | 34116 ft | 394 kts | 328° |
| 2026-05-05 14:31 | 35.88005 | 23.82918 | 34118 ft | 394 kts | 328° |
| 2026-05-05 14:32 | 35.92742 | 23.79493 | 34121 ft | 394 kts | 328° |
| 2026-05-05 14:32 | 35.97478 | 23.76062 | 34123 ft | 394 kts | 328° |
| 2026-05-05 14:33 | 36.02211 | 23.72625 | 34125 ft | 394 kts | 328° |
| 2026-05-05 14:33 | 36.06937 | 23.69203 | 34123 ft | 394 kts | 328° |
| 2026-05-05 14:34 | 36.11648 | 23.65788 | 34119 ft | 394 kts | 328° |
| 2026-05-05 14:34 | 36.16383 | 23.62347 | 34120 ft | 394 kts | 328° |
| 2026-05-05 14:35 | 36.21118 | 23.58897 | 34122 ft | 395 kts | 328° |
| 2026-05-05 14:35 | 36.25849 | 23.55445 | 34123 ft | 395 kts | 328° |
| 2026-05-05 14:36 | 36.29786 | 23.52566 | 34121 ft | 395 kts | 328° |
| 2026-05-05 14:36 | 36.34516 | 23.49103 | 34120 ft | 395 kts | 328° |
| 2026-05-05 14:37 | 36.39222 | 23.45659 | 34120 ft | 395 kts | 328° |
| 2026-05-05 14:37 | 36.43954 | 23.42187 | 34117 ft | 395 kts | 328° |
| 2026-05-05 14:38 | 36.48694 | 23.38706 | 34116 ft | 395 kts | 328° |
| 2026-05-05 14:38 | 36.53429 | 23.35221 | 34116 ft | 395 kts | 328° |
| 2026-05-05 14:39 | 36.58162 | 23.31734 | 34114 ft | 395 kts | 328° |
| 2026-05-05 14:39 | 36.62899 | 23.28247 | 34112 ft | 396 kts | 328° |
| 2026-05-05 14:40 | 36.67637 | 23.24751 | 34108 ft | 396 kts | 328° |
| 2026-05-05 14:40 | 36.72368 | 23.21240 | 34107 ft | 396 kts | 328° |
| 2026-05-05 14:41 | 36.77082 | 23.17745 | 34106 ft | 396 kts | 328° |
| 2026-05-05 14:41 | 36.81854 | 23.14209 | 34103 ft | 397 kts | 328° |
| 2026-05-05 14:42 | 36.86574 | 23.10698 | 34100 ft | 397 kts | 328° |
| 2026-05-05 14:42 | 36.91328 | 23.07162 | 34099 ft | 397 kts | 328° |
| 2026-05-05 14:43 | 36.96083 | 23.03620 | 34097 ft | 397 kts | 328° |
| 2026-05-05 14:43 | 37.00831 | 23.00072 | 34096 ft | 397 kts | 328° |
| 2026-05-05 14:44 | 37.05549 | 22.96533 | 34092 ft | 397 kts | 328° |
| 2026-05-05 14:44 | 37.10301 | 22.92985 | 34092 ft | 398 kts | 328° |
| 2026-05-05 14:45 | 37.15056 | 22.89430 | 34090 ft | 397 kts | 328° |
| 2026-05-05 14:45 | 37.19801 | 22.85868 | 34083 ft | 397 kts | 328° |
| 2026-05-05 14:46 | 37.24545 | 22.82300 | 34089 ft | 398 kts | 328° |
| 2026-05-05 14:46 | 37.29289 | 22.78728 | 34084 ft | 397 kts | 328° |
| 2026-05-05 14:47 | 37.34030 | 22.75151 | 34085 ft | 397 kts | 328° |
| 2026-05-05 14:47 | 37.38775 | 22.71569 | 34083 ft | 397 kts | 328° |
| 2026-05-05 14:48 | 37.43513 | 22.67983 | 34083 ft | 397 kts | 328° |
| 2026-05-05 14:48 | 37.48242 | 22.64399 | 34085 ft | 397 kts | 328° |
| 2026-05-05 14:49 | 37.52945 | 22.60829 | 34084 ft | 397 kts | 328° |
| 2026-05-05 14:49 | 37.57677 | 22.57227 | 34083 ft | 397 kts | 328° |
| 2026-05-05 14:50 | 37.62398 | 22.53633 | 34078 ft | 397 kts | 328° |
| 2026-05-05 14:50 | 37.67134 | 22.50038 | 34083 ft | 397 kts | 328° |
| 2026-05-05 14:51 | 37.71848 | 22.46440 | 34080 ft | 396 kts | 328° |
| 2026-05-05 14:51 | 37.76570 | 22.42833 | 34082 ft | 396 kts | 328° |
| 2026-05-05 14:52 | 37.81279 | 22.39224 | 34078 ft | 396 kts | 328° |
| 2026-05-05 14:52 | 37.85987 | 22.35608 | 34077 ft | 396 kts | 328° |
| 2026-05-05 14:53 | 37.90701 | 22.31991 | 34081 ft | 395 kts | 328° |
| 2026-05-05 14:53 | 37.95380 | 22.28398 | 34086 ft | 395 kts | 328° |
| 2026-05-05 14:54 | 38.00081 | 22.24783 | 34083 ft | 395 kts | 328° |
| 2026-05-05 14:54 | 38.04779 | 22.21163 | 34085 ft | 395 kts | 328° |
| 2026-05-05 14:55 | 38.09469 | 22.17540 | 34097 ft | 395 kts | 328° |
| 2026-05-05 14:55 | 38.14154 | 22.13906 | 34098 ft | 394 kts | 328° |
| 2026-05-05 14:56 | 38.18834 | 22.10276 | 34097 ft | 394 kts | 328° |
| 2026-05-05 14:56 | 38.23520 | 22.06645 | 34092 ft | 394 kts | 328° |
| 2026-05-05 14:57 | 38.28204 | 22.03016 | 34089 ft | 394 kts | 328° |
| 2026-05-05 14:57 | 38.32885 | 21.99375 | 34094 ft | 394 kts | 328° |
| 2026-05-05 14:58 | 38.37567 | 21.95712 | 34097 ft | 394 kts | 328° |
| 2026-05-05 14:58 | 38.42245 | 21.92051 | 34094 ft | 395 kts | 328° |
| 2026-05-05 14:59 | 38.46929 | 21.88387 | 34096 ft | 395 kts | 328° |
| 2026-05-05 14:59 | 38.51610 | 21.84726 | 34098 ft | 395 kts | 328° |
| 2026-05-05 15:00 | 38.55507 | 21.81670 | 34097 ft | 395 kts | 328° |
| 2026-05-05 15:00 | 38.60950 | 21.77393 | 34097 ft | 395 kts | 327° |
| 2026-05-05 15:01 | 38.65640 | 21.73708 | 34098 ft | 395 kts | 327° |
| 2026-05-05 15:01 | 38.70321 | 21.70015 | 34090 ft | 395 kts | 327° |
| 2026-05-05 15:02 | 38.75009 | 21.66313 | 34094 ft | 396 kts | 327° |
| 2026-05-05 15:02 | 38.79672 | 21.62632 | 34091 ft | 396 kts | 327° |
| 2026-05-05 15:03 | 38.84359 | 21.58921 | 34089 ft | 396 kts | 327° |
| 2026-05-05 15:03 | 38.89052 | 21.55203 | 34087 ft | 396 kts | 327° |
| 2026-05-05 15:04 | 38.93738 | 21.51487 | 34085 ft | 396 kts | 327° |
| 2026-05-05 15:04 | 38.98421 | 21.47762 | 34086 ft | 396 kts | 327° |
| 2026-05-05 15:05 | 39.05452 | 21.42147 | 34099 ft | 397 kts | 327° |
| 2026-05-05 15:06 | 39.10130 | 21.38402 | 34127 ft | 395 kts | 327° |
| 2026-05-05 15:06 | 39.14786 | 21.34685 | 34144 ft | 393 kts | 327° |
| 2026-05-05 15:07 | 39.19388 | 21.31007 | 34147 ft | 390 kts | 327° |
| 2026-05-05 15:07 | 39.23985 | 21.27310 | 34140 ft | 389 kts | 327° |
| 2026-05-05 15:08 | 39.28564 | 21.23621 | 34138 ft | 388 kts | 327° |
| 2026-05-05 15:08 | 39.33144 | 21.19942 | 34138 ft | 387 kts | 327° |
| 2026-05-05 15:09 | 39.37707 | 21.16270 | 34133 ft | 386 kts | 327° |
| 2026-05-05 15:09 | 39.42256 | 21.12589 | 34128 ft | 386 kts | 326° |
| 2026-05-05 15:10 | 39.46806 | 21.08898 | 34123 ft | 385 kts | 326° |
| 2026-05-05 15:10 | 39.51359 | 21.05220 | 34119 ft | 385 kts | 327° |
| 2026-05-05 15:11 | 39.55906 | 21.01545 | 34114 ft | 385 kts | 326° |
| 2026-05-05 15:11 | 39.60412 | 20.97877 | 34111 ft | 385 kts | 326° |
| 2026-05-05 15:12 | 39.64954 | 20.94170 | 34109 ft | 385 kts | 326° |
| 2026-05-05 15:12 | 39.69491 | 20.90468 | 34107 ft | 385 kts | 326° |
| 2026-05-05 15:13 | 39.74025 | 20.86774 | 34106 ft | 385 kts | 326° |
| 2026-05-05 15:13 | 39.78554 | 20.83071 | 34105 ft | 384 kts | 326° |
| 2026-05-05 15:14 | 39.83053 | 20.79380 | 34103 ft | 384 kts | 326° |
| 2026-05-05 15:14 | 39.87588 | 20.75667 | 34102 ft | 385 kts | 326° |
| 2026-05-05 15:15 | 39.92123 | 20.71938 | 34101 ft | 385 kts | 326° |
| 2026-05-05 15:15 | 39.96646 | 20.68219 | 34100 ft | 385 kts | 325° |
| 2026-05-05 15:16 | 40.01181 | 20.64492 | 34100 ft | 385 kts | 325° |
| 2026-05-05 15:16 | 40.05708 | 20.60753 | 34099 ft | 385 kts | 325° |
| 2026-05-05 15:17 | 40.10238 | 20.57067 | 34100 ft | 386 kts | 326° |
| 2026-05-05 15:17 | 40.14874 | 20.53482 | 34099 ft | 387 kts | 327° |
| 2026-05-05 15:18 | 40.19515 | 20.49922 | 34103 ft | 387 kts | 326° |
| 2026-05-05 15:18 | 40.24158 | 20.46321 | 34108 ft | 387 kts | 326° |
| 2026-05-05 15:19 | 40.28784 | 20.42713 | 34102 ft | 387 kts | 326° |
| 2026-05-05 15:19 | 40.33408 | 20.39095 | 34101 ft | 387 kts | 326° |
| 2026-05-05 15:20 | 40.38030 | 20.35465 | 34101 ft | 387 kts | 326° |
| 2026-05-05 15:20 | 40.42631 | 20.31860 | 34099 ft | 387 kts | 326° |
| 2026-05-05 15:21 | 40.47258 | 20.28215 | 34098 ft | 387 kts | 326° |
| 2026-05-05 15:21 | 40.51885 | 20.24567 | 34098 ft | 387 kts | 326° |
| 2026-05-05 15:22 | 40.56508 | 20.20928 | 34096 ft | 387 kts | 326° |
| 2026-05-05 15:22 | 40.60355 | 20.17898 | 34087 ft | 387 kts | 326° |
| 2026-05-05 15:23 | 40.64980 | 20.14233 | 34100 ft | 388 kts | 326° |
| 2026-05-05 15:23 | 40.70356 | 20.09961 | 34098 ft | 388 kts | 326° |
| 2026-05-05 15:24 | 40.74233 | 20.06883 | 34094 ft | 388 kts | 326° |
| 2026-05-05 15:24 | 40.78860 | 20.03209 | 34095 ft | 388 kts | 326° |
| 2026-05-05 15:25 | 40.83462 | 19.99540 | 34093 ft | 389 kts | 326° |
| 2026-05-05 15:25 | 40.88096 | 19.95836 | 34087 ft | 390 kts | 325° |
| 2026-05-05 15:26 | 40.92747 | 19.92122 | 34084 ft | 391 kts | 325° |
| 2026-05-05 15:26 | 40.97412 | 19.88394 | 34085 ft | 392 kts | 325° |
| 2026-05-05 15:27 | 41.02088 | 19.84651 | 34082 ft | 393 kts | 325° |
| 2026-05-05 15:27 | 41.06777 | 19.80875 | 34082 ft | 394 kts | 325° |
| 2026-05-05 15:28 | 41.11437 | 19.77128 | 34086 ft | 394 kts | 325° |
| 2026-05-05 15:28 | 41.16132 | 19.73342 | 34084 ft | 395 kts | 325° |
| 2026-05-05 15:29 | 41.20835 | 19.69548 | 34086 ft | 396 kts | 325° |
| 2026-05-05 15:29 | 41.25549 | 19.65738 | 34085 ft | 396 kts | 325° |
| 2026-05-05 15:30 | 41.30264 | 19.61922 | 34081 ft | 397 kts | 325° |
| 2026-05-05 15:30 | 41.34982 | 19.58097 | 34086 ft | 397 kts | 325° |
| 2026-05-05 15:31 | 41.39675 | 19.54280 | 34084 ft | 398 kts | 325° |
| 2026-05-05 15:31 | 41.44425 | 19.50411 | 34084 ft | 398 kts | 325° |
| 2026-05-05 15:32 | 41.49126 | 19.46582 | 34090 ft | 398 kts | 325° |
| 2026-05-05 15:32 | 41.53859 | 19.42706 | 34087 ft | 399 kts | 325° |
| 2026-05-05 15:33 | 41.58592 | 19.38832 | 34089 ft | 399 kts | 324° |
| 2026-05-05 15:33 | 41.63328 | 19.34959 | 34081 ft | 399 kts | 324° |
| 2026-05-05 15:34 | 41.68065 | 19.31069 | 34078 ft | 400 kts | 324° |
| 2026-05-05 15:34 | 41.72798 | 19.27169 | 34075 ft | 400 kts | 324° |
| 2026-05-05 15:35 | 41.77548 | 19.23254 | 34077 ft | 400 kts | 324° |
| 2026-05-05 15:35 | 41.82290 | 19.19345 | 34078 ft | 400 kts | 324° |
| 2026-05-05 15:36 | 41.87042 | 19.15414 | 34079 ft | 401 kts | 324° |
| 2026-05-05 15:36 | 41.91761 | 19.11497 | 34078 ft | 401 kts | 324° |
| 2026-05-05 15:37 | 41.96549 | 19.07518 | 34079 ft | 402 kts | 324° |
| 2026-05-05 15:37 | 42.01311 | 19.03572 | 34073 ft | 402 kts | 324° |
| 2026-05-05 15:38 | 42.06057 | 18.99616 | 34065 ft | 405 kts | 324° |
| 2026-05-05 15:38 | 42.10866 | 18.95598 | 34067 ft | 407 kts | 324° |
| 2026-05-05 15:39 | 42.15697 | 18.91567 | 34067 ft | 409 kts | 324° |
| 2026-05-05 15:39 | 42.20539 | 18.87518 | 34069 ft | 410 kts | 324° |
| 2026-05-05 15:40 | 42.25396 | 18.83435 | 34070 ft | 411 kts | 324° |
| 2026-05-05 15:40 | 42.30268 | 18.79336 | 34074 ft | 412 kts | 324° |
| 2026-05-05 15:41 | 42.35108 | 18.75249 | 34077 ft | 413 kts | 324° |
| 2026-05-05 15:41 | 42.39998 | 18.71123 | 34084 ft | 414 kts | 324° |
| 2026-05-05 15:42 | 42.44897 | 18.66988 | 34081 ft | 415 kts | 324° |
| 2026-05-05 15:42 | 42.49797 | 18.62850 | 34076 ft | 415 kts | 324° |
| 2026-05-05 15:43 | 42.54699 | 18.58696 | 34083 ft | 416 kts | 323° |
| 2026-05-05 15:43 | 42.59574 | 18.54552 | 34079 ft | 416 kts | 323° |
| 2026-05-05 15:44 | 42.64483 | 18.50372 | 34082 ft | 417 kts | 323° |
| 2026-05-05 15:44 | 42.69401 | 18.46172 | 34083 ft | 417 kts | 323° |
| 2026-05-05 15:45 | 42.74320 | 18.41961 | 34083 ft | 418 kts | 323° |
| 2026-05-05 15:45 | 42.79245 | 18.37750 | 34082 ft | 418 kts | 323° |
| 2026-05-05 15:46 | 42.84174 | 18.33524 | 34084 ft | 419 kts | 324° |
| 2026-05-05 15:46 | 42.89112 | 18.29284 | 34083 ft | 420 kts | 323° |
| 2026-05-05 15:47 | 42.94053 | 18.25025 | 34082 ft | 420 kts | 323° |
| 2026-05-05 15:47 | 42.99001 | 18.20747 | 34081 ft | 421 kts | 323° |
| 2026-05-05 15:48 | 43.03932 | 18.16484 | 34078 ft | 422 kts | 324° |
| 2026-05-05 15:48 | 43.08904 | 18.12179 | 34078 ft | 423 kts | 324° |
| 2026-05-05 15:49 | 43.13889 | 18.07856 | 34079 ft | 424 kts | 324° |
| 2026-05-05 15:49 | 43.18883 | 18.03518 | 34078 ft | 425 kts | 324° |
| 2026-05-05 15:50 | 43.23886 | 17.99156 | 34081 ft | 426 kts | 324° |
| 2026-05-05 15:50 | 43.28898 | 17.94769 | 34075 ft | 428 kts | 323° |
| 2026-05-05 15:51 | 43.33930 | 17.90363 | 34077 ft | 430 kts | 323° |
| 2026-05-05 15:51 | 43.38981 | 17.85942 | 34076 ft | 431 kts | 324° |
| 2026-05-05 15:52 | 43.44046 | 17.81499 | 34079 ft | 432 kts | 324° |
| 2026-05-05 15:52 | 43.49076 | 17.77070 | 34079 ft | 433 kts | 324° |
| 2026-05-05 15:53 | 43.54182 | 17.72552 | 34080 ft | 433 kts | 323° |
| 2026-05-05 15:53 | 43.59260 | 17.68066 | 34079 ft | 434 kts | 324° |
| 2026-05-05 15:54 | 43.64317 | 17.63593 | 34075 ft | 435 kts | 324° |
| 2026-05-05 15:54 | 43.69415 | 17.59074 | 34069 ft | 435 kts | 324° |
| 2026-05-05 15:55 | 43.74510 | 17.54541 | 34063 ft | 435 kts | 323° |
| 2026-05-05 15:55 | 43.79332 | 17.49521 | 34058 ft | 433 kts | 319° |
| 2026-05-05 15:56 | 43.84097 | 17.44392 | 34059 ft | 434 kts | 319° |
| 2026-05-05 15:56 | 43.88855 | 17.39257 | 34056 ft | 433 kts | 319° |
| 2026-05-05 15:57 | 43.89626 | 17.38424 | 34056 ft | 433 kts | 319° |